Time;durP1;ratioP1;P1;durP2;ratioP2;P2;SDS_P1;SDS_P2;PMS_P1;PMS_P2;Temp;Humidity;BMP_temperature;BMP_pressure;BME280_temperature;BME280_humidity;BME280_pressure;Samples;Min_cycle;Max_cycle;Signal;HPM_P1;HPM_P2
2023/03/18 00:01:41;;;;;;;;;;;;;;;2.65;45.03;102017.61;107510;1253;109666;-62
2023/03/18 00:04:10;;;;;;;;;;;;;;;2.64;45.27;102014.65;107467;1254;107110;-61
2023/03/18 00:06:39;;;;;;;;;;;;;;;2.58;45.25;102013.80;107473;1254;99276;-61
2023/03/18 00:09:07;;;;;;;;;;;;;;;2.55;45.44;102023.27;107508;1253;99093;-61
2023/03/18 00:11:36;;;;;;;;;;;;;;;2.57;45.48;102017.02;107515;1254;114240;-61
2023/03/18 00:14:04;;;;;;;;;;;;;;;2.55;45.68;102013.56;107552;1254;109793;-61
2023/03/18 00:16:33;;;;;;;;;;;;;;;2.50;45.67;102016.37;107507;1254;108403;-61
2023/03/18 00:19:03;;;;;;;;;;;;;;;2.51;45.81;102012.61;107501;1257;99167;-62
2023/03/18 00:21:31;;;;;;;;;;;;;;;2.51;45.69;102012.98;107526;1254;99165;-63
2023/03/18 00:23:59;;;;;;;;;;;;;;;2.51;45.80;102008.01;107527;1254;113537;-62
2023/03/18 00:26:28;;;;;;;;;;;;;;;2.48;45.89;102012.87;107556;1253;109846;-61
2023/03/18 00:28:57;;;;;;;;;;;;;;;2.52;45.94;102005.34;107495;1254;108260;-62
2023/03/18 00:31:27;;;;;;;;;;;;;;;2.59;45.99;102003.83;107499;1254;99167;-60
2023/03/18 00:33:57;;;;;;;;;;;;;;;2.68;45.97;102000.52;107557;1254;99171;-61
2023/03/18 00:36:26;;;;;;;;;;;;;;;2.76;45.70;102000.77;107449;1253;112984;-61
2023/03/18 00:38:56;;;;;;;;;;;;;;;2.84;45.81;102003.14;107549;1254;111042;-62
2023/03/18 00:41:27;;;;;;;;;;;;;;;2.82;45.59;102001.60;107525;1254;108892;-62
2023/03/18 00:43:57;;;;;;;;;;;;;;;2.83;45.70;102000.52;107492;1254;99198;-60
2023/03/18 00:46:30;;;;;;;;;;;;;;;2.88;45.61;101999.42;107535;1257;99253;-62
2023/03/18 00:49:00;;;;;;;;;;;;;;;2.84;45.61;101999.04;107438;1253;112791;-62
2023/03/18 00:51:31;;;;;;;;;;;;;;;2.76;45.58;101997.73;107524;1253;108823;-61
2023/03/18 00:54:00;;;;;;;;;;;;;;;2.73;45.58;101993.23;107436;1254;107666;-62
2023/03/18 00:56:30;;;;;;;;;;;;;;;2.70;45.71;101993.35;107457;1253;99251;-62
2023/03/18 00:58:59;;;;;;;;;;;;;;;2.66;45.70;101988.34;107523;1254;99057;-61
2023/03/18 01:01:27;;;;;;;;;;;;;;;2.65;45.74;101991.21;107550;1254;112602;-63
2023/03/18 01:03:58;;;;;;;;;;;;;;;2.71;45.76;101990.66;107475;1254;109698;-61
2023/03/18 01:06:30;;;;;;;;;;;;;;;2.79;45.57;101992.50;107402;1259;108598;-61
2023/03/18 01:09:00;;;;;;;;;;;;;;;2.86;45.27;101991.70;107425;1254;99502;-61
2023/03/18 01:11:28;;;;;;;;;;;;;;;2.90;45.10;101989.09;107417;1254;99189;-62
2023/03/18 01:13:58;;;;;;;;;;;;;;;2.88;45.50;101988.45;107499;1254;113257;-61
2023/03/18 01:16:26;;;;;;;;;;;;;;;2.81;45.64;101987.27;107460;1254;108378;-61
2023/03/18 01:18:55;;;;;;;;;;;;;;;2.74;45.72;101984.18;107442;1254;107576;-61
2023/03/18 01:21:24;;;;;;;;;;;;;;;2.70;45.52;101982.02;107491;1254;99246;-62
2023/03/18 01:23:56;;;;;;;;;;;;;;;2.70;45.68;101980.98;107470;1254;99063;-62
2023/03/18 01:26:25;;;;;;;;;;;;;;;2.73;45.70;101980.30;107462;1253;112947;-62
2023/03/18 01:28:55;;;;;;;;;;;;;;;2.78;45.67;101986.50;107485;1253;109823;-61
2023/03/18 01:31:24;;;;;;;;;;;;;;;2.82;45.60;101984.40;107459;1254;108294;-61
2023/03/18 01:33:54;;;;;;;;;;;;;;;2.85;45.67;101983.61;107471;1254;99170;-61
2023/03/18 01:36:24;;;;;;;;;;;;;;;2.82;45.89;101981.94;107483;1253;99173;-61
2023/03/18 01:39:02;;;;;;;;;;;;;;;2.82;45.79;101984.60;107446;1254;114008;-62
2023/03/18 01:41:30;;;;;;;;;;;;;;;2.85;45.89;101983.44;107380;1254;110252;-63
2023/03/18 01:44:00;;;;;;;;;;;;;;;2.88;45.99;101991.31;107455;1254;108132;-61
2023/03/18 01:46:37;;;;;;;;;;;;;;;2.88;45.89;101987.19;107445;1253;99260;-60
2023/03/18 01:49:09;;;;;;;;;;;;;;;2.88;45.86;101988.98;107565;1254;99060;-62
2023/03/18 01:51:39;;;;;;;;;;;;;;;2.80;46.08;101991.39;107500;1254;113015;-61
2023/03/18 01:54:08;;;;;;;;;;;;;;;2.76;46.04;101993.50;107477;1259;110191;-61
2023/03/18 01:56:38;;;;;;;;;;;;;;;2.71;46.30;101996.33;107416;1253;109681;-62
2023/03/18 01:59:08;;;;;;;;;;;;;;;2.69;46.28;101994.65;107280;1254;99124;-61
2023/03/18 02:01:48;;;;;;;;;;;;;;;2.69;46.30;101997.31;107455;1254;99102;-62
2023/03/18 02:04:20;;;;;;;;;;;;;;;2.71;46.28;101996.70;107474;1254;114028;-62
2023/03/18 02:06:49;;;;;;;;;;;;;;;2.72;46.40;101999.85;107494;1254;109022;-60
2023/03/18 02:09:18;;;;;;;;;;;;;;;2.74;46.47;101997.44;107420;1258;109171;-62
2023/03/18 02:11:50;;;;;;;;;;;;;;;2.78;46.52;102001.21;107406;1254;99163;-61
2023/03/18 02:14:21;;;;;;;;;;;;;;;2.77;46.39;102004.80;107514;1254;99063;-61
2023/03/18 02:17:18;;;;;;;;;;;;;;;2.75;46.46;102005.55;107429;1253;113125;-61
2023/03/18 02:19:59;;;;;;;;;;;;;;;2.77;46.41;102004.95;107381;1257;109211;-62
2023/03/18 02:22:32;;;;;;;;;;;;;;;2.76;46.60;102006.05;107479;1254;107682;-61
2023/03/18 02:25:18;;;;;;;;;;;;;;;2.73;47.27;102003.16;107494;1257;99317;-63
2023/03/18 02:27:50;;;;;;;;;;;;;;;2.68;47.13;102005.46;107559;1254;99205;-63
2023/03/18 02:30:21;;;;;;;;;;;;;;;2.73;47.11;102010.61;107445;1254;113635;-62
2023/03/18 02:32:51;;;;;;;;;;;;;;;2.80;46.91;102008.06;107450;1253;109455;-62
2023/03/18 02:35:20;;;;;;;;;;;;;;;2.82;47.27;102005.48;107431;1254;109720;-61
2023/03/18 02:37:49;;;;;;;;;;;;;;;2.81;47.12;102003.93;107452;1254;99182;-64
2023/03/18 02:40:19;;;;;;;;;;;;;;;2.85;46.94;102000.45;107493;1253;99171;-62
2023/03/18 02:42:48;;;;;;;;;;;;;;;2.91;46.71;102001.48;107434;1254;113287;-62
2023/03/18 02:45:37;;;;;;;;;;;;;;;2.96;46.78;102003.94;107500;1253;108958;-61
2023/03/18 02:48:17;;;;;;;;;;;;;;;2.93;46.83;102000.69;107476;1253;108635;-62
2023/03/18 02:50:47;;;;;;;;;;;;;;;2.90;46.95;101998.30;107543;1253;99134;-61
2023/03/18 02:53:15;;;;;;;;;;;;;;;2.82;47.36;102004.77;107526;1253;99261;-64
2023/03/18 02:55:44;;;;;;;;;;;;;;;2.80;47.04;102003.28;107545;1254;113631;-62
2023/03/18 02:58:12;;;;;;;;;;;;;;;2.79;47.38;102004.18;107500;1254;110053;-61
2023/03/18 03:00:41;;;;;;;;;;;;;;;2.77;47.51;102007.80;107457;1254;108652;-62
2023/03/18 03:03:09;;;;;;;;;;;;;;;2.74;47.51;102005.27;107470;1254;99128;-62
2023/03/18 03:05:38;;;;;;;;;;;;;;;2.75;47.65;102008.06;107437;1254;99074;-61
2023/03/18 03:08:07;;;;;;;;;;;;;;;2.76;47.63;102004.82;107368;1253;113185;-61
2023/03/18 03:10:37;;;;;;;;;;;;;;;2.78;47.54;102008.28;107479;1254;111237;-61
2023/03/18 03:13:08;;;;;;;;;;;;;;;2.79;47.63;102005.07;107427;1254;108513;-62
2023/03/18 03:15:38;;;;;;;;;;;;;;;2.79;47.61;101998.34;107371;1254;99183;-61
2023/03/18 03:18:07;;;;;;;;;;;;;;;2.82;47.87;101998.23;107395;1254;99077;-61
2023/03/18 03:20:37;;;;;;;;;;;;;;;2.86;48.07;101995.63;107310;1254;112162;-62
2023/03/18 03:23:06;;;;;;;;;;;;;;;2.88;48.43;101991.80;107447;1254;110860;-61
2023/03/18 03:25:35;;;;;;;;;;;;;;;2.90;48.66;101992.98;107422;1254;108108;-61
2023/03/18 03:28:04;;;;;;;;;;;;;;;2.91;48.71;101995.11;107449;1254;99304;-61
2023/03/18 03:30:34;;;;;;;;;;;;;;;2.89;49.06;101996.19;107499;1253;99163;-60
2023/03/18 03:33:02;;;;;;;;;;;;;;;2.90;49.35;101997.07;107447;1254;112818;-61
2023/03/18 03:35:31;;;;;;;;;;;;;;;2.86;49.56;101996.15;107423;1254;110040;-63
2023/03/18 03:37:59;;;;;;;;;;;;;;;2.86;49.29;101996.84;107402;1254;108231;-62
2023/03/18 03:40:28;;;;;;;;;;;;;;;2.89;49.17;101994.96;107482;1254;99259;-61
2023/03/18 03:42:57;;;;;;;;;;;;;;;2.94;49.59;101992.50;107492;1254;100635;-62
2023/03/18 03:45:26;;;;;;;;;;;;;;;2.98;49.57;101995.35;107490;1253;113635;-61
2023/03/18 03:47:54;;;;;;;;;;;;;;;3.02;49.53;101998.23;107467;1254;110585;-64
2023/03/18 03:50:23;;;;;;;;;;;;;;;3.05;49.58;102000.95;107492;1253;107939;-61
2023/03/18 03:52:52;;;;;;;;;;;;;;;3.10;49.50;101993.65;107415;1254;99183;-62
2023/03/18 03:55:21;;;;;;;;;;;;;;;3.17;49.69;101999.99;107518;1253;99065;-62
2023/03/18 03:57:50;;;;;;;;;;;;;;;3.19;49.45;102003.95;107423;1254;113745;-61
2023/03/18 04:00:20;;;;;;;;;;;;;;;3.23;49.67;102002.39;107432;1254;109226;-61
2023/03/18 04:02:50;;;;;;;;;;;;;;;3.27;49.73;102004.91;107509;1253;107173;-61
2023/03/18 04:05:21;;;;;;;;;;;;;;;3.30;50.19;102002.50;107501;1254;102600;-61
2023/03/18 04:07:51;;;;;;;;;;;;;;;3.29;50.46;102000.57;107468;1253;99374;-62
2023/03/18 04:10:25;;;;;;;;;;;;;;;3.30;50.49;101999.66;107404;1259;112131;-62
2023/03/18 04:12:54;;;;;;;;;;;;;;;3.31;50.59;101997.14;107459;1254;109064;-62
2023/03/18 04:15:22;;;;;;;;;;;;;;;3.34;50.58;102003.75;107498;1253;107212;-61
2023/03/18 04:17:52;;;;;;;;;;;;;;;3.38;50.83;102004.15;107410;1254;99305;-62
2023/03/18 04:20:21;;;;;;;;;;;;;;;3.40;51.20;102004.23;107528;1254;99262;-63
2023/03/18 04:22:49;;;;;;;;;;;;;;;3.38;51.33;102005.71;107528;1254;112766;-61
2023/03/18 04:25:19;;;;;;;;;;;;;;;3.38;51.88;102005.73;107528;1253;109587;-62
2023/03/18 04:27:51;;;;;;;;;;;;;;;3.36;52.31;102008.84;107503;1254;107992;-61
2023/03/18 04:30:22;;;;;;;;;;;;;;;3.37;51.94;102009.33;107512;1253;99807;-62
2023/03/18 04:33:16;;;;;;;;;;;;;;;3.41;51.87;102009.70;107517;1253;99173;-61
2023/03/18 04:35:46;;;;;;;;;;;;;;;3.47;51.69;102008.76;107569;1257;113639;-61
2023/03/18 04:38:15;;;;;;;;;;;;;;;3.52;52.45;102013.38;107555;1253;109511;-62
2023/03/18 04:40:44;;;;;;;;;;;;;;;3.51;52.32;102008.09;107393;1254;108659;-61
2023/03/18 04:43:14;;;;;;;;;;;;;;;3.52;52.18;102010.34;107394;1254;99159;-63
2023/03/18 04:45:43;;;;;;;;;;;;;;;3.53;52.74;102014.94;107434;1254;99090;-61
2023/03/18 04:48:12;;;;;;;;;;;;;;;3.53;52.87;102013.88;107485;1253;112471;-62
2023/03/18 04:50:42;;;;;;;;;;;;;;;3.54;52.48;102016.27;107522;1253;109686;-62
2023/03/18 04:53:14;;;;;;;;;;;;;;;3.59;52.48;102013.98;107361;1254;108242;-61
2023/03/18 04:55:43;;;;;;;;;;;;;;;3.62;52.81;102012.45;107315;1254;99179;-61
2023/03/18 04:58:12;;;;;;;;;;;;;;;3.64;53.03;102017.48;107426;1254;99148;-62
2023/03/18 05:00:45;;;;;;;;;;;;;;;3.64;53.21;102020.52;107443;1254;113161;-61
2023/03/18 05:03:28;;;;;;;;;;;;;;;3.65;52.80;102018.86;107432;1253;109851;-60
2023/03/18 05:05:56;;;;;;;;;;;;;;;3.68;52.67;102018.95;107341;1254;108327;-61
2023/03/18 05:08:33;;;;;;;;;;;;;;;3.71;53.01;102019.91;107488;1254;99272;-61
2023/03/18 05:11:02;;;;;;;;;;;;;;;3.72;53.24;102020.91;107401;1254;99052;-62
2023/03/18 05:13:30;;;;;;;;;;;;;;;3.74;53.29;102018.89;107539;1253;113800;-62
2023/03/18 05:16:00;;;;;;;;;;;;;;;3.76;53.34;102021.83;107495;1254;109238;-61
2023/03/18 05:18:28;;;;;;;;;;;;;;;3.81;53.77;102024.30;107505;1254;107551;-61
2023/03/18 05:20:59;;;;;;;;;;;;;;;3.82;53.99;102025.48;107408;1254;99070;-62
2023/03/18 05:23:28;;;;;;;;;;;;;;;3.84;54.19;102028.79;107547;1254;99067;-64
2023/03/18 05:25:57;;;;;;;;;;;;;;;3.86;54.36;102034.39;107404;1254;110989;-62
2023/03/18 05:28:26;;;;;;;;;;;;;;;3.85;54.77;102029.09;107506;1254;109893;-62
2023/03/18 05:31:10;;;;;;;;;;;;;;;3.82;54.71;102034.00;107528;1254;108140;-62
2023/03/18 05:33:41;;;;;;;;;;;;;;;3.84;55.04;102029.86;107488;1253;99071;-62
2023/03/18 05:36:11;;;;;;;;;;;;;;;3.88;55.01;102033.41;107544;1253;99058;-62
2023/03/18 05:38:48;;;;;;;;;;;;;;;3.90;55.14;102036.32;107529;1254;113870;-63
2023/03/18 05:41:17;;;;;;;;;;;;;;;3.94;55.25;102030.52;107583;1254;110210;-62
2023/03/18 05:43:47;;;;;;;;;;;;;;;3.96;55.46;102035.40;107494;1254;108204;-62
2023/03/18 05:46:16;;;;;;;;;;;;;;;4.01;55.29;102034.31;107525;1254;99029;-60
2023/03/18 05:48:55;;;;;;;;;;;;;;;4.05;55.75;102039.65;107560;1253;99233;-61
2023/03/18 05:51:26;;;;;;;;;;;;;;;4.08;55.68;102038.10;107547;1257;112981;-63
2023/03/18 05:53:56;;;;;;;;;;;;;;;4.13;55.76;102041.27;107420;1254;109356;-61
2023/03/18 05:56:29;;;;;;;;;;;;;;;4.18;56.48;102037.50;107343;1255;108897;-62
2023/03/18 05:58:59;;;;;;;;;;;;;;;4.21;56.30;102036.52;107322;1256;99189;-62
2023/03/18 06:01:47;;;;;;;;;;;;;;;4.24;56.91;102035.66;107368;1254;99302;-62
2023/03/18 06:04:18;;;;;;;;;;;;;;;4.21;57.32;102035.27;107442;1254;110754;-62
2023/03/18 06:06:47;;;;;;;;;;;;;;;4.21;56.86;102034.73;107411;1254;110338;-61
2023/03/18 06:09:16;;;;;;;;;;;;;;;4.27;56.86;102036.27;107525;1254;107809;-62
2023/03/18 06:11:45;;;;;;;;;;;;;;;4.35;57.10;102035.77;107515;1254;99230;-62
2023/03/18 06:14:14;;;;;;;;;;;;;;;4.41;57.47;102042.77;107390;1253;99259;-61
2023/03/18 06:16:43;;;;;;;;;;;;;;;4.45;57.56;102042.98;107374;1254;113456;-61
2023/03/18 06:19:12;;;;;;;;;;;;;;;4.48;57.61;102048.36;107558;1254;108861;-61
2023/03/18 06:21:41;;;;;;;;;;;;;;;4.50;57.89;102045.08;107509;1254;108711;-62
2023/03/18 06:24:10;;;;;;;;;;;;;;;4.52;58.09;102043.05;107529;1254;99642;-62
2023/03/18 06:26:38;;;;;;;;;;;;;;;4.58;57.54;102043.70;107534;1254;99188;-61
2023/03/18 06:29:07;;;;;;;;;;;;;;;4.63;57.51;102046.98;107489;1254;114151;-62
2023/03/18 06:31:36;;;;;;;;;;;;;;;4.69;57.76;102046.91;107513;1253;108346;-62
2023/03/18 06:34:05;;;;;;;;;;;;;;;4.69;57.64;102051.38;107372;1254;107693;-61
2023/03/18 06:36:36;;;;;;;;;;;;;;;4.67;57.75;102054.82;107488;1254;99167;-62
2023/03/18 06:39:06;;;;;;;;;;;;;;;4.67;57.37;102050.04;107410;1254;99213;-61
2023/03/18 06:41:35;;;;;;;;;;;;;;;4.75;57.51;102054.68;107514;1254;112921;-61
2023/03/18 06:44:24;;;;;;;;;;;;;;;4.81;57.71;102056.02;107420;1254;111013;-62
2023/03/18 06:46:54;;;;;;;;;;;;;;;4.87;57.56;102053.43;107495;1259;108084;-62
2023/03/18 06:49:22;;;;;;;;;;;;;;;4.88;57.69;102055.70;107526;1254;99902;-62
2023/03/18 06:51:55;;;;;;;;;;;;;;;4.90;57.29;102057.75;107536;1254;99153;-62
2023/03/18 06:54:25;;;;;;;;;;;;;;;4.93;57.23;102060.13;107368;1254;113094;-62
2023/03/18 06:56:54;;;;;;;;;;;;;;;4.98;57.09;102062.56;107420;1254;109430;-63
2023/03/18 06:59:22;;;;;;;;;;;;;;;5.01;57.29;102063.12;107522;1254;107859;-62
2023/03/18 07:01:50;;;;;;;;;;;;;;;5.07;57.16;102062.38;107502;1254;99157;-62
2023/03/18 07:04:19;;;;;;;;;;;;;;;5.10;57.52;102061.83;107516;1254;99061;-63
2023/03/18 07:06:50;;;;;;;;;;;;;;;5.12;57.40;102060.70;107532;1254;113363;-62
2023/03/18 07:09:18;;;;;;;;;;;;;;;5.18;57.10;102060.44;107448;1254;108219;-63
2023/03/18 07:11:52;;;;;;;;;;;;;;;5.26;57.01;102062.22;107493;1254;106979;-62
2023/03/18 07:14:24;;;;;;;;;;;;;;;5.34;57.05;102062.73;107347;1254;99212;-63
2023/03/18 07:16:52;;;;;;;;;;;;;;;5.41;56.98;102067.77;107554;1254;99274;-63
2023/03/18 07:19:21;;;;;;;;;;;;;;;5.45;57.15;102071.85;107543;1253;112231;-63
2023/03/18 07:21:51;;;;;;;;;;;;;;;5.46;57.73;102070.36;107507;1254;110172;-62
2023/03/18 07:24:20;;;;;;;;;;;;;;;5.46;57.63;102071.27;107536;1254;106723;-63
2023/03/18 07:26:52;;;;;;;;;;;;;;;5.49;57.43;102071.32;107497;1258;99170;-62
2023/03/18 07:29:20;;;;;;;;;;;;;;;5.51;57.48;102072.99;107532;1257;99183;-62
2023/03/18 07:31:48;;;;;;;;;;;;;;;5.56;57.35;102075.24;107532;1254;112539;-63
2023/03/18 07:34:18;;;;;;;;;;;;;;;5.58;57.45;102074.98;107545;1254;109286;-62
2023/03/18 07:36:47;;;;;;;;;;;;;;;5.61;57.41;102076.96;107509;1254;109175;-61
2023/03/18 07:39:15;;;;;;;;;;;;;;;5.61;57.59;102079.10;107529;1254;99162;-62
2023/03/18 07:41:44;;;;;;;;;;;;;;;5.63;57.63;102078.31;107360;1254;99170;-62
2023/03/18 07:44:20;;;;;;;;;;;;;;;5.66;57.54;102072.47;107384;1254;113595;-62
2023/03/18 07:46:49;;;;;;;;;;;;;;;5.75;57.40;102075.97;107536;1254;110165;-62
2023/03/18 07:49:17;;;;;;;;;;;;;;;5.83;57.50;102078.44;107516;1254;108536;-62
2023/03/18 07:51:46;;;;;;;;;;;;;;;5.94;57.22;102075.41;107536;1254;99222;-61
2023/03/18 07:54:14;;;;;;;;;;;;;;;6.05;57.14;102079.90;107547;1254;99070;-62
2023/03/18 07:56:42;;;;;;;;;;;;;;;6.18;56.89;102081.80;107542;1254;113643;-61
2023/03/18 07:59:11;;;;;;;;;;;;;;;6.23;57.28;102084.73;107572;1254;109166;-61
2023/03/18 08:01:40;;;;;;;;;;;;;;;6.20;57.14;102081.33;107513;1254;108209;-62
2023/03/18 08:04:09;;;;;;;;;;;;;;;6.24;56.71;102087.37;107572;1254;99169;-63
2023/03/18 08:06:38;;;;;;;;;;;;;;;6.31;56.89;102087.37;107555;1254;99257;-62
2023/03/18 08:09:06;;;;;;;;;;;;;;;6.37;56.87;102090.64;107547;1254;115550;-62
2023/03/18 08:11:35;;;;;;;;;;;;;;;6.44;56.44;102097.98;107561;1254;109739;-63
2023/03/18 08:14:04;;;;;;;;;;;;;;;6.45;56.38;102099.69;107349;1257;108576;-61
2023/03/18 08:16:32;;;;;;;;;;;;;;;6.46;56.68;102098.39;107504;1254;99169;-61
2023/03/18 08:19:01;;;;;;;;;;;;;;;6.41;56.98;102100.25;107544;1254;99057;-61
2023/03/18 08:21:29;;;;;;;;;;;;;;;6.39;56.71;102101.95;107382;1253;113130;-61
2023/03/18 08:23:58;;;;;;;;;;;;;;;6.40;56.97;102096.73;107586;1253;109122;-61
2023/03/18 08:26:26;;;;;;;;;;;;;;;6.45;56.69;102101.46;107537;1254;107069;-62
2023/03/18 08:28:54;;;;;;;;;;;;;;;6.50;56.99;102101.95;107515;1254;99227;-62
2023/03/18 08:31:22;;;;;;;;;;;;;;;6.55;56.99;102098.99;107565;1258;99203;-63
2023/03/18 08:33:54;;;;;;;;;;;;;;;6.61;56.99;102100.31;107565;1254;113097;-64
2023/03/18 08:36:23;;;;;;;;;;;;;;;6.67;57.15;102096.64;107358;1254;110696;-62
2023/03/18 08:38:52;;;;;;;;;;;;;;;6.74;56.99;102095.02;107542;1254;108654;-62
2023/03/18 08:41:21;;;;;;;;;;;;;;;6.84;56.98;102089.36;107514;1254;99173;-63
2023/03/18 08:43:51;;;;;;;;;;;;;;;6.92;57.17;102087.89;107613;1254;99067;-62
2023/03/18 08:46:19;;;;;;;;;;;;;;;7.04;57.32;102088.69;107533;1254;113845;-62
2023/03/18 08:48:48;;;;;;;;;;;;;;;7.20;57.16;102085.88;107591;1253;109535;-62
2023/03/18 08:51:16;;;;;;;;;;;;;;;7.33;57.47;102082.88;107532;1254;108621;-62
2023/03/18 08:53:45;;;;;;;;;;;;;;;7.49;57.25;102083.46;107505;1258;99189;-62
2023/03/18 08:56:14;;;;;;;;;;;;;;;7.60;57.04;102081.80;107578;1254;99112;-61
2023/03/18 08:58:45;;;;;;;;;;;;;;;7.74;56.88;102076.54;107509;1254;113021;-62
2023/03/18 09:01:13;;;;;;;;;;;;;;;7.90;56.56;102075.81;107547;1254;108983;-61
2023/03/18 09:03:43;;;;;;;;;;;;;;;7.99;56.69;102077.98;107506;1254;108311;-62
2023/03/18 09:06:11;;;;;;;;;;;;;;;8.01;56.91;102082.16;107503;1259;99191;-62
2023/03/18 09:08:40;;;;;;;;;;;;;;;8.02;56.57;102084.27;107376;1254;99086;-63
2023/03/18 09:11:09;;;;;;;;;;;;;;;8.03;56.60;102088.31;107342;1254;112983;-62
2023/03/18 09:13:37;;;;;;;;;;;;;;;7.95;57.01;102086.96;107473;1256;109013;-63
2023/03/18 09:16:07;;;;;;;;;;;;;;;7.89;57.20;102090.16;107487;1254;108394;-62
2023/03/18 09:18:35;;;;;;;;;;;;;;;7.89;57.02;102091.08;107490;1254;99148;-62
2023/03/18 09:21:04;;;;;;;;;;;;;;;7.91;56.90;102087.73;107541;1254;99078;-62
2023/03/18 09:23:33;;;;;;;;;;;;;;;7.97;56.94;102089.52;107532;1254;113718;-63
2023/03/18 09:26:02;;;;;;;;;;;;;;;8.04;56.94;102089.18;107592;1254;109035;-63
2023/03/18 09:28:30;;;;;;;;;;;;;;;8.09;56.67;102089.77;107552;1254;109296;-61
2023/03/18 09:31:00;;;;;;;;;;;;;;;8.20;56.49;102085.23;107537;1253;99204;-61
2023/03/18 09:33:28;;;;;;;;;;;;;;;8.35;56.67;102084.90;107550;1254;99065;-61
2023/03/18 09:35:57;;;;;;;;;;;;;;;8.46;56.66;102084.63;107539;1254;113174;-62
2023/03/18 09:38:25;;;;;;;;;;;;;;;8.54;56.77;102082.75;107539;1257;110137;-63
2023/03/18 09:41:01;;;;;;;;;;;;;;;8.55;56.74;102084.27;107342;1259;108148;-62
2023/03/18 09:43:45;;;;;;;;;;;;;;;8.55;56.65;102087.85;107552;1258;99502;-62
2023/03/18 09:46:32;;;;;;;;;;;;;;;8.59;56.72;102083.68;107561;1254;99163;-62
2023/03/18 09:49:24;;;;;;;;;;;;;;;8.65;56.77;102085.52;107559;1254;113080;-62
2023/03/18 09:51:59;;;;;;;;;;;;;;;8.68;56.72;102088.02;107367;1254;109549;-63
2023/03/18 09:54:39;;;;;;;;;;;;;;;8.68;56.47;102082.11;106791;1254;1012854;-62
2023/03/18 09:57:18;;;;;;;;;;;;;;;8.65;56.41;102083.86;107345;1254;99176;-62
2023/03/18 09:59:53;;;;;;;;;;;;;;;8.70;56.14;102081.80;107564;1254;99098;-63
2023/03/18 10:02:31;;;;;;;;;;;;;;;8.79;55.95;102078.04;107561;1254;113096;-62
2023/03/18 10:05:02;;;;;;;;;;;;;;;8.85;56.05;102078.77;107410;1254;107254;-61
2023/03/18 10:07:33;;;;;;;;;;;;;;;8.91;55.72;102078.20;107549;1254;108199;-62
2023/03/18 10:10:08;;;;;;;;;;;;;;;9.00;55.76;102077.71;107414;1255;99164;-62
2023/03/18 10:12:44;;;;;;;;;;;;;;;9.13;55.49;102077.40;107453;1257;99188;-62
2023/03/18 10:15:21;;;;;;;;;;;;;;;9.23;54.97;102077.52;107446;1254;112960;-62
2023/03/18 10:17:53;;;;;;;;;;;;;;;9.27;54.68;102078.03;107344;1255;110227;-62
2023/03/18 10:20:24;;;;;;;;;;;;;;;9.31;54.26;102080.98;107476;1258;106249;-63
2023/03/18 10:23:11;;;;;;;;;;;;;;;9.27;54.32;102084.11;107309;1254;99173;-63
2023/03/18 10:25:40;;;;;;;;;;;;;;;9.23;54.28;102079.34;107566;1254;99167;-63
2023/03/18 10:28:15;;;;;;;;;;;;;;;9.16;54.25;102070.77;107552;1259;113010;-62
2023/03/18 10:30:43;;;;;;;;;;;;;;;9.09;54.16;102077.84;107547;1254;109451;-63
2023/03/18 10:33:16;;;;;;;;;;;;;;;9.05;54.25;102074.90;107573;1258;108383;-62
2023/03/18 10:35:47;;;;;;;;;;;;;;;9.05;54.36;102072.34;107531;1257;99055;-63
2023/03/18 10:38:51;;;;;;;;;;;;;;;9.08;54.29;102068.98;107569;1254;99268;-62
2023/03/18 10:41:28;;;;;;;;;;;;;;;9.02;54.22;102069.13;106810;1262;112933;-64
2023/03/18 10:43:59;;;;;;;;;;;;;;;9.00;54.09;102068.20;107480;1254;109428;-62
2023/03/18 10:46:29;;;;;;;;;;;;;;;8.98;54.16;102070.65;107533;1254;108197;-64
2023/03/18 10:49:07;;;;;;;;;;;;;;;8.97;54.07;102065.54;107304;1254;99263;-63
2023/03/18 10:51:42;;;;;;;;;;;;;;;8.95;54.13;102064.55;107544;1258;99081;-62
2023/03/18 10:54:14;;;;;;;;;;;;;;;8.89;53.98;102064.19;107439;1257;111850;-63
2023/03/18 10:56:43;;;;;;;;;;;;;;;8.89;54.16;102061.17;107446;1257;109104;-63
2023/03/18 10:59:16;;;;;;;;;;;;;;;8.89;54.05;102064.20;107446;1254;106967;-63
2023/03/18 11:01:51;;;;;;;;;;;;;;;8.84;54.10;102060.24;107489;1254;99179;-63
2023/03/18 11:04:22;;;;;;;;;;;;;;;8.85;54.14;102057.86;107545;1254;99207;-64
2023/03/18 11:07:07;;;;;;;;;;;;;;;8.85;54.16;102058.37;107562;1254;114091;-63
2023/03/18 11:09:38;;;;;;;;;;;;;;;8.87;54.17;102055.20;107562;1254;109530;-62
2023/03/18 11:12:15;;;;;;;;;;;;;;;8.82;54.10;102055.89;107538;1254;108000;-63
2023/03/18 11:14:47;;;;;;;;;;;;;;;8.78;54.37;102055.04;107505;1254;99184;-63
2023/03/18 11:17:30;;;;;;;;;;;;;;;8.76;54.42;102056.21;107329;1254;99062;-63
2023/03/18 11:20:06;;;;;;;;;;;;;;;8.75;54.27;102056.10;107308;1255;112935;-64
2023/03/18 11:22:35;;;;;;;;;;;;;;;8.76;54.17;102052.98;107541;1254;109238;-63
2023/03/18 11:25:15;;;;;;;;;;;;;;;8.76;54.08;102052.98;107523;1259;106163;-63
2023/03/18 11:27:45;;;;;;;;;;;;;;;8.78;54.08;102055.02;107512;1254;99239;-62
2023/03/18 11:30:14;;;;;;;;;;;;;;;8.81;54.23;102055.02;107543;1254;99279;-63
2023/03/18 11:33:03;;;;;;;;;;;;;;;8.84;53.99;102051.98;107507;1258;112997;-63
2023/03/18 11:35:36;;;;;;;;;;;;;;;8.83;53.99;102049.56;107342;1254;109722;-63
2023/03/18 11:38:12;;;;;;;;;;;;;;;8.82;54.21;102050.33;107529;1258;108833;-63
2023/03/18 11:40:40;;;;;;;;;;;;;;;8.83;54.16;102046.30;107507;1254;99160;-64
2023/03/18 11:43:15;;;;;;;;;;;;;;;8.90;54.10;102044.65;107524;1254;99270;-62
2023/03/18 11:45:49;;;;;;;;;;;;;;;8.96;53.98;102044.82;107572;1254;113137;-63
2023/03/18 11:48:27;;;;;;;;;;;;;;;9.01;53.84;102042.55;107554;1254;109699;-63
2023/03/18 11:51:04;;;;;;;;;;;;;;;9.01;53.73;102043.27;107541;1254;109081;-64
2023/03/18 11:53:51;;;;;;;;;;;;;;;9.02;53.82;102040.83;107539;1254;99177;-63
2023/03/18 11:56:26;;;;;;;;;;;;;;;9.09;53.70;102036.70;107551;1258;100424;-62
2023/03/18 11:58:55;;;;;;;;;;;;;;;9.13;53.65;102038.04;107601;1254;114034;-64
2023/03/18 12:01:33;;;;;;;;;;;;;;;9.18;53.47;102032.56;107544;1259;109057;-64
2023/03/18 12:04:24;;;;;;;;;;;;;;;9.22;53.60;102031.41;107522;1259;107278;-63
2023/03/18 12:07:04;;;;;;;;;;;;;;;9.32;53.47;102027.56;107549;1254;99080;-62
2023/03/18 12:09:46;;;;;;;;;;;;;;;9.40;53.46;102026.01;107567;1258;99272;-63
2023/03/18 12:12:33;;;;;;;;;;;;;;;9.46;53.13;102025.05;107521;1254;111483;-63
2023/03/18 12:15:08;;;;;;;;;;;;;;;9.49;52.99;102027.92;107545;1254;109669;-63
2023/03/18 12:18:05;;;;;;;;;;;;;;;9.46;52.85;102024.35;107515;1257;107677;-64
2023/03/18 12:20:52;;;;;;;;;;;;;;;9.49;52.92;102020.73;107511;1255;99582;-64
2023/03/18 12:23:49;;;;;;;;;;;;;;;9.51;52.79;102016.68;107542;1254;99074;-63
2023/03/18 12:26:25;;;;;;;;;;;;;;;9.53;52.82;102014.21;107562;1254;113464;-62
2023/03/18 12:29:12;;;;;;;;;;;;;;;9.59;52.78;102010.97;107548;1254;109418;-62
2023/03/18 12:31:48;;;;;;;;;;;;;;;9.63;52.69;102009.31;107571;1259;109398;-62
2023/03/18 12:34:29;;;;;;;;;;;;;;;9.70;52.66;102007.91;107562;1259;99197;-62
2023/03/18 12:37:16;;;;;;;;;;;;;;;9.77;52.47;102006.63;107554;1258;99691;-62
2023/03/18 12:39:58;;;;;;;;;;;;;;;9.82;52.45;102008.06;107552;1254;113137;-62
2023/03/18 12:42:29;;;;;;;;;;;;;;;9.87;52.24;102012.05;107276;1262;110200;-63
2023/03/18 12:44:58;;;;;;;;;;;;;;;9.95;51.98;102007.95;107441;1258;107337;-63
2023/03/18 12:47:35;;;;;;;;;;;;;;;10.06;51.66;102005.25;107206;1260;99242;-62
2023/03/18 12:50:07;;;;;;;;;;;;;;;10.15;51.70;102000.88;107578;1255;99187;-63
2023/03/18 12:52:38;;;;;;;;;;;;;;;10.29;51.59;101997.77;107372;1254;112606;-61
2023/03/18 12:55:17;;;;;;;;;;;;;;;10.39;51.32;101994.65;107557;1254;109334;-63